Time;durP1;ratioP1;P1;durP2;ratioP2;P2;SDS_P1;SDS_P2;PMS_P1;PMS_P2;Temp;Humidity;BMP_temperature;BMP_pressure;BME280_temperature;BME280_humidity;BME280_pressure;Samples;Min_cycle;Max_cycle;Signal;HPM_P1;HPM_P2
2020/12/16 00:00:31;;;;;;;27.58;19.38;;;;;;;;;;5076377;28;20199;-73
2020/12/16 00:02:57;;;;;;;30.10;20.02;;;;;;;;;;5075900;28;20218;-75
2020/12/16 00:05:23;;;;;;;28.38;19.48;;;;;;;;;;5075701;28;20955;-73
2020/12/16 00:07:49;;;;;;;31.52;22.02;;;;;;;;;;5075891;28;20191;-75
2020/12/16 00:10:15;;;;;;;31.58;20.45;;;;;;;;;;5082052;28;20205;-73
2020/12/16 00:12:41;;;;;;;30.55;19.20;;;;;;;;;;5078543;28;20191;-70
2020/12/16 00:15:09;;;;;;;30.13;20.70;;;;;;;;;;5072345;28;20180;-72
2020/12/16 00:17:35;;;;;;;32.15;21.17;;;;;;;;;;5078985;28;20198;-71
2020/12/16 00:20:02;;;;;;;31.42;20.15;;;;;;;;;;5079683;28;20210;-72
2020/12/16 00:22:28;;;;;;;30.50;20.35;;;;;;;;;;5074904;28;20534;-74
2020/12/16 00:24:55;;;;;;;32.63;21.63;;;;;;;;;;5077425;28;20203;-72
2020/12/16 00:27:21;;;;;;;32.00;20.90;;;;;;;;;;5090784;28;20186;-71
2020/12/16 00:29:47;;;;;;;29.58;20.48;;;;;;;;;;5090580;28;20215;-71
2020/12/16 00:32:13;;;;;;;31.38;21.08;;;;;;;;;;5074192;28;20654;-73
2020/12/16 00:34:39;;;;;;;31.25;20.77;;;;;;;;;;5073526;28;20175;-73
2020/12/16 00:37:05;;;;;;;33.42;21.42;;;;;;;;;;5080097;28;20253;-73
2020/12/16 00:39:31;;;;;;;33.10;21.92;;;;;;;;;;5090233;28;20195;-74
2020/12/16 00:41:57;;;;;;;37.47;21.80;;;;;;;;;;5089942;28;20207;-74
2020/12/16 00:44:24;;;;;;;32.30;21.33;;;;;;;;;;5089606;28;20266;-73
2020/12/16 00:46:50;;;;;;;53.00;23.88;;;;;;;;;;5090276;28;20639;-72
2020/12/16 00:49:16;;;;;;;36.90;23.00;;;;;;;;;;5090265;28;20661;-74
2020/12/16 00:51:42;;;;;;;35.38;22.10;;;;;;;;;;5090286;28;20175;-73
2020/12/16 00:54:08;;;;;;;37.53;23.00;;;;;;;;;;5076083;28;20176;-74
2020/12/16 00:56:34;;;;;;;36.22;24.05;;;;;;;;;;5069833;28;20187;-73
2020/12/16 00:59:00;;;;;;;35.88;23.23;;;;;;;;;;5070088;28;20358;-73
2020/12/16 01:01:28;;;;;;;39.78;24.55;;;;;;;;;;5071793;28;20184;-74
2020/12/16 01:03:54;;;;;;;40.03;23.52;;;;;;;;;;5079568;28;20270;-72
2020/12/16 01:06:20;;;;;;;35.60;22.98;;;;;;;;;;5072813;28;20195;-72
2020/12/16 01:08:46;;;;;;;39.58;23.77;;;;;;;;;;5090589;28;20253;-73
2020/12/16 01:11:12;;;;;;;40.63;22.92;;;;;;;;;;5084431;28;20532;-73
2020/12/16 01:13:39;;;;;;;38.53;22.92;;;;;;;;;;5083916;28;20175;-74
2020/12/16 01:16:05;;;;;;;36.40;23.23;;;;;;;;;;5086699;28;20176;-71
2020/12/16 01:18:31;;;;;;;35.35;22.35;;;;;;;;;;5079242;28;20238;-72
2020/12/16 01:20:57;;;;;;;36.03;22.67;;;;;;;;;;5073140;28;20181;-73
2020/12/16 01:23:23;;;;;;;31.63;20.30;;;;;;;;;;5073054;28;20176;-73
2020/12/16 01:25:49;;;;;;;32.60;21.20;;;;;;;;;;5073159;28;20242;-74
2020/12/16 01:28:15;;;;;;;34.70;21.58;;;;;;;;;;5084709;28;20186;-73
2020/12/16 01:30:41;;;;;;;35.65;21.75;;;;;;;;;;5093055;28;20175;-73
2020/12/16 01:33:07;;;;;;;33.03;20.70;;;;;;;;;;5093441;28;20175;-74
2020/12/16 01:35:33;;;;;;;31.70;21.70;;;;;;;;;;5093007;28;20175;-74
2020/12/16 01:37:59;;;;;;;31.20;20.23;;;;;;;;;;5081829;28;20206;-73
2020/12/16 01:40:25;;;;;;;33.63;21.65;;;;;;;;;;5091289;28;20199;-73
2020/12/16 01:42:52;;;;;;;33.17;18.80;;;;;;;;;;5093179;28;20171;-74
2020/12/16 01:45:21;;;;;;;33.95;20.70;;;;;;;;;;5092500;28;20256;-73
2020/12/16 01:47:48;;;;;;;31.10;19.92;;;;;;;;;;5093170;28;20163;-74
2020/12/16 01:50:14;;;;;;;30.27;20.05;;;;;;;;;;5092899;28;20305;-73
2020/12/16 01:52:40;;;;;;;31.17;20.23;;;;;;;;;;5092541;28;20171;-73
2020/12/16 01:55:07;;;;;;;27.50;18.73;;;;;;;;;;5091316;28;20183;-71
2020/12/16 01:57:36;;;;;;;31.85;20.67;;;;;;;;;;5092884;28;20172;-72
2020/12/16 02:00:04;;;;;;;29.88;19.33;;;;;;;;;;5084790;28;20274;-73
2020/12/16 02:02:32;;;;;;;31.25;19.25;;;;;;;;;;5091809;28;20325;-73
2020/12/16 02:04:59;;;;;;;35.58;19.58;;;;;;;;;;5084547;28;20203;-74
2020/12/16 02:07:26;;;;;;;28.52;19.55;;;;;;;;;;5077609;28;20270;-73
2020/12/16 02:09:52;;;;;;;28.33;18.27;;;;;;;;;;5099161;28;20590;-73
2020/12/16 02:12:20;;;;;;;29.75;18.52;;;;;;;;;;5090699;28;20183;-74
2020/12/16 02:14:46;;;;;;;32.67;19.65;;;;;;;;;;5080840;28;20179;-72
2020/12/16 02:17:12;;;;;;;35.13;20.13;;;;;;;;;;5076831;28;20197;-73
2020/12/16 02:19:40;;;;;;;30.98;19.77;;;;;;;;;;5092556;28;20195;-73
2020/12/16 02:22:07;;;;;;;30.98;18.95;;;;;;;;;;5092570;28;20175;-74
2020/12/16 02:24:33;;;;;;;32.05;19.92;;;;;;;;;;5082493;28;20275;-74
2020/12/16 02:26:59;;;;;;;30.98;19.67;;;;;;;;;;5083737;28;20183;-74
2020/12/16 02:29:26;;;;;;;33.08;19.85;;;;;;;;;;5092546;28;20534;-75
2020/12/16 02:31:53;;;;;;;34.00;20.42;;;;;;;;;;5083172;28;20184;-73
2020/12/16 02:34:20;;;;;;;34.85;22.45;;;;;;;;;;5082107;28;20184;-74
2020/12/16 02:36:46;;;;;;;34.20;21.10;;;;;;;;;;5092507;28;20254;-73
2020/12/16 02:39:12;;;;;;;31.45;20.27;;;;;;;;;;5092175;28;20191;-74
2020/12/16 02:41:38;;;;;;;35.90;21.38;;;;;;;;;;5092686;28;20183;-74
2020/12/16 02:44:04;;;;;;;37.90;22.08;;;;;;;;;;5081781;28;20176;-74
2020/12/16 02:46:30;;;;;;;37.13;22.00;;;;;;;;;;5073482;28;20204;-74
2020/12/16 02:48:56;;;;;;;35.53;22.00;;;;;;;;;;5081713;28;20661;-73
2020/12/16 02:51:22;;;;;;;35.70;20.95;;;;;;;;;;5072043;28;20532;-75
2020/12/16 02:53:48;;;;;;;33.88;21.58;;;;;;;;;;5081127;28;20180;-73
2020/12/16 02:56:14;;;;;;;37.25;22.20;;;;;;;;;;5082088;28;20524;-74
2020/12/16 02:58:44;;;;;;;39.83;21.92;;;;;;;;;;5078991;28;20192;-75
2020/12/16 03:01:10;;;;;;;36.00;21.77;;;;;;;;;;5081932;28;20195;-74
2020/12/16 03:03:36;;;;;;;36.83;23.17;;;;;;;;;;5093998;28;20528;-74
2020/12/16 03:06:02;;;;;;;39.38;23.02;;;;;;;;;;5094930;28;20582;-73
2020/12/16 03:08:28;;;;;;;34.95;19.73;;;;;;;;;;5095743;28;20195;-72
2020/12/16 03:10:54;;;;;;;31.35;20.23;;;;;;;;;;5104751;28;20175;-75
2020/12/16 03:13:21;;;;;;;35.38;20.63;;;;;;;;;;5083843;28;20248;-75
2020/12/16 03:15:47;;;;;;;34.63;22.05;;;;;;;;;;5078341;28;20176;-74
2020/12/16 03:18:13;;;;;;;36.75;22.70;;;;;;;;;;5082401;28;20172;-74
2020/12/16 03:20:39;;;;;;;34.50;21.42;;;;;;;;;;5089194;28;20198;-74
2020/12/16 03:23:05;;;;;;;38.78;22.88;;;;;;;;;;5085321;28;20199;-74
2020/12/16 03:25:31;;;;;;;38.60;22.52;;;;;;;;;;5080191;28;20265;-72
2020/12/16 03:27:57;;;;;;;37.75;22.60;;;;;;;;;;5075395;28;20172;-72
2020/12/16 03:30:23;;;;;;;47.92;25.63;;;;;;;;;;5079067;28;20188;-74
2020/12/16 03:32:50;;;;;;;39.65;23.83;;;;;;;;;;5093344;28;20180;-73
2020/12/16 03:35:16;;;;;;;42.75;25.50;;;;;;;;;;5087372;28;20203;-73
2020/12/16 03:37:42;;;;;;;41.45;26.35;;;;;;;;;;5095325;28;20246;-74
2020/12/16 03:40:08;;;;;;;39.92;24.90;;;;;;;;;;5078432;28;20196;-73
2020/12/16 03:42:35;;;;;;;43.42;25.50;;;;;;;;;;5075439;28;20604;-71
2020/12/16 03:45:01;;;;;;;36.08;23.30;;;;;;;;;;5091477;28;20280;-74
2020/12/16 03:47:27;;;;;;;40.20;24.45;;;;;;;;;;5093697;28;20175;-73
2020/12/16 03:49:53;;;;;;;35.47;21.95;;;;;;;;;;5078500;28;20204;-72
2020/12/16 03:52:19;;;;;;;45.72;28.70;;;;;;;;;;5075157;28;20187;-73
2020/12/16 03:54:45;;;;;;;38.10;24.88;;;;;;;;;;5077029;28;20187;-74
2020/12/16 03:57:13;;;;;;;39.92;25.65;;;;;;;;;;5084411;28;20172;-72
2020/12/16 03:59:39;;;;;;;37.33;23.98;;;;;;;;;;5076671;28;20192;-75
2020/12/16 04:02:05;;;;;;;42.95;25.13;;;;;;;;;;5085485;28;20175;-74
2020/12/16 04:04:31;;;;;;;41.20;24.45;;;;;;;;;;5090378;28;20298;-72
2020/12/16 04:06:58;;;;;;;37.38;24.30;;;;;;;;;;5094526;28;20631;-73
2020/12/16 04:09:27;;;;;;;35.83;22.60;;;;;;;;;;5096980;28;20190;-74
2020/12/16 04:11:53;;;;;;;39.67;23.80;;;;;;;;;;5098917;28;20644;-74
2020/12/16 04:14:20;;;;;;;39.75;23.30;;;;;;;;;;5092943;28;20584;-73
2020/12/16 04:16:46;;;;;;;36.10;23.40;;;;;;;;;;5083220;28;20233;-74
2020/12/16 04:19:12;;;;;;;38.10;22.33;;;;;;;;;;5084056;28;20553;-74
2020/12/16 04:21:38;;;;;;;34.30;22.13;;;;;;;;;;5074220;28;20187;-73
2020/12/16 04:24:04;;;;;;;38.00;23.20;;;;;;;;;;5074499;28;20176;-75
2020/12/16 04:26:30;;;;;;;38.65;23.27;;;;;;;;;;5080621;28;20752;-72
2020/12/16 04:28:56;;;;;;;37.88;23.52;;;;;;;;;;5087000;28;20196;-74
2020/12/16 04:31:22;;;;;;;33.92;22.13;;;;;;;;;;5085393;28;20179;-75
2020/12/16 04:33:48;;;;;;;36.08;23.33;;;;;;;;;;5086842;28;20278;-73
2020/12/16 04:36:14;;;;;;;38.10;23.00;;;;;;;;;;5093999;28;20184;-74
2020/12/16 04:38:40;;;;;;;43.28;24.30;;;;;;;;;;5083469;28;20207;-74
2020/12/16 04:41:07;;;;;;;41.22;24.10;;;;;;;;;;5093987;28;20172;-73
2020/12/16 04:43:39;;;;;;;37.78;22.42;;;;;;;;;;5093903;28;20167;-75
2020/12/16 04:46:06;;;;;;;35.22;22.20;;;;;;;;;;5093509;28;20199;-75
2020/12/16 04:48:32;;;;;;;35.45;22.20;;;;;;;;;;5093967;28;20198;-72
2020/12/16 04:51:01;;;;;;;39.38;23.90;;;;;;;;;;5094127;28;20649;-74
2020/12/16 04:53:28;;;;;;;38.72;22.95;;;;;;;;;;5073910;28;20219;-74
2020/12/16 04:55:58;;;;;;;39.80;22.30;;;;;;;;;;5076866;28;20244;-75
2020/12/16 04:58:24;;;;;;;37.50;23.35;;;;;;;;;;5078579;28;21184;-74
2020/12/16 05:00:50;;;;;;;40.70;23.40;;;;;;;;;;5074016;28;20172;-75
2020/12/16 05:03:16;;;;;;;34.30;22.20;;;;;;;;;;5093615;28;20229;-73
2020/12/16 05:05:42;;;;;;;39.75;22.95;;;;;;;;;;5081805;28;20215;-75
2020/12/16 05:08:15;;;;;;;40.42;22.55;;;;;;;;;;5088044;28;20191;-75
2020/12/16 05:10:42;;;;;;;44.28;24.92;;;;;;;;;;5095611;28;20255;-73
2020/12/16 05:13:09;;;;;;;43.20;23.17;;;;;;;;;;5093812;28;20180;-74
2020/12/16 05:15:36;;;;;;;46.78;23.48;;;;;;;;;;5087801;28;20652;-74
2020/12/16 05:18:06;;;;;;;41.65;24.80;;;;;;;;;;5093590;28;20253;-73
2020/12/16 05:20:33;;;;;;;43.47;24.00;;;;;;;;;;5089723;28;20210;-73
2020/12/16 05:23:00;;;;;;;45.25;25.55;;;;;;;;;;5073270;28;20184;-73
2020/12/16 05:25:26;;;;;;;41.88;23.50;;;;;;;;;;5082435;28;20226;-74
2020/12/16 05:27:52;;;;;;;43.30;24.50;;;;;;;;;;5071927;28;20241;-75
2020/12/16 05:30:19;;;;;;;44.70;22.85;;;;;;;;;;5081030;28;20192;-73
2020/12/16 05:32:45;;;;;;;44.00;24.80;;;;;;;;;;5088574;28;20228;-74
2020/12/16 05:35:25;;;;;;;43.35;24.92;;;;;;;;;;5092923;28;20186;-74
2020/12/16 05:37:52;;;;;;;44.33;24.50;;;;;;;;;;5092883;28;20171;-75
2020/12/16 05:40:21;;;;;;;38.53;23.58;;;;;;;;;;5080108;28;20287;-73
2020/12/16 05:42:48;;;;;;;41.83;24.67;;;;;;;;;;5091430;28;20203;-75
2020/12/16 05:45:15;;;;;;;41.90;23.77;;;;;;;;;;5092666;28;20199;-74
2020/12/16 05:47:42;;;;;;;40.38;23.60;;;;;;;;;;5093631;28;20199;-73
2020/12/16 05:50:18;;;;;;;41.92;24.95;;;;;;;;;;5086255;28;20203;-74
2020/12/16 05:52:45;;;;;;;39.92;22.45;;;;;;;;;;5072750;28;20191;-74
2020/12/16 05:55:12;;;;;;;42.78;24.75;;;;;;;;;;5074767;28;20201;-74
2020/12/16 05:57:38;;;;;;;42.05;23.40;;;;;;;;;;5087001;28;20693;-74
2020/12/16 06:00:04;;;;;;;36.95;23.70;;;;;;;;;;5092309;28;20207;-76
2020/12/16 06:02:34;;;;;;;33.10;21.85;;;;;;;;;;5089713;28;20182;-74
2020/12/16 06:05:00;;;;;;;42.83;24.52;;;;;;;;;;5092645;28;20668;-74
2020/12/16 06:07:28;;;;;;;34.17;21.63;;;;;;;;;;5092528;28;20217;-74
2020/12/16 06:09:56;;;;;;;38.38;23.63;;;;;;;;;;5092760;28;20285;-73
2020/12/16 06:12:25;;;;;;;32.10;21.23;;;;;;;;;;5086830;28;20278;-75
2020/12/16 06:15:02;;;;;;;31.83;21.73;;;;;;;;;;5092027;28;20187;-74
2020/12/16 06:17:28;;;;;;;30.60;21.10;;;;;;;;;;5072588;28;20168;-73
2020/12/16 06:19:55;;;;;;;37.15;23.38;;;;;;;;;;5078785;28;20199;-75
2020/12/16 06:22:23;;;;;;;34.63;23.75;;;;;;;;;;5074840;28;20297;-74
2020/12/16 06:24:49;;;;;;;36.40;22.33;;;;;;;;;;5076233;28;20195;-74
2020/12/16 06:27:18;;;;;;;41.53;24.73;;;;;;;;;;5073077;28;20229;-74
2020/12/16 06:29:46;;;;;;;36.65;24.63;;;;;;;;;;5084744;28;20184;-73
2020/12/16 06:32:19;;;;;;;38.50;25.17;;;;;;;;;;5083749;28;20180;-72
2020/12/16 06:34:46;;;;;;;38.47;25.30;;;;;;;;;;5096332;28;20233;-73
2020/12/16 06:37:16;;;;;;;44.88;27.02;;;;;;;;;;5097003;28;20176;-74
2020/12/16 06:39:42;;;;;;;45.08;25.90;;;;;;;;;;5096195;28;20195;-75
2020/12/16 06:42:08;;;;;;;41.83;24.98;;;;;;;;;;5093212;28;20236;-74
2020/12/16 06:44:34;;;;;;;40.28;26.10;;;;;;;;;;5078050;28;20202;-75
2020/12/16 06:47:00;;;;;;;42.20;26.05;;;;;;;;;;5094032;28;20199;-73
2020/12/16 06:49:27;;;;;;;38.92;25.45;;;;;;;;;;5078013;28;20199;-73
2020/12/16 06:51:55;;;;;;;44.00;25.55;;;;;;;;;;5076177;28;20259;-75
2020/12/16 06:54:23;;;;;;;45.78;26.67;;;;;;;;;;5082115;28;20225;-75
2020/12/16 06:56:50;;;;;;;45.67;25.90;;;;;;;;;;5096272;28;20183;-74
2020/12/16 06:59:36;;;;;;;45.03;25.95;;;;;;;;;;5092533;28;20202;-73
2020/12/16 07:02:22;;;;;;;45.97;27.13;;;;;;;;;;5095623;28;20191;-75
2020/12/16 07:04:49;;;;;;;44.30;24.95;;;;;;;;;;5086571;28;20175;-74
2020/12/16 07:07:33;;;;;;;44.30;24.17;;;;;;;;;;5095750;28;20649;-75
2020/12/16 07:09:59;;;;;;;44.38;26.42;;;;;;;;;;5091003;28;20199;-73
2020/12/16 07:12:31;;;;;;;45.10;27.40;;;;;;;;;;5082368;28;20171;-75
2020/12/16 07:14:57;;;;;;;45.60;25.77;;;;;;;;;;5095120;28;20175;-74
2020/12/16 07:17:24;;;;;;;39.78;24.77;;;;;;;;;;5090943;28;20221;-74
2020/12/16 07:19:53;;;;;;;43.70;26.75;;;;;;;;;;5096145;28;20265;-76
2020/12/16 07:22:22;;;;;;;39.88;25.27;;;;;;;;;;5095454;28;20179;-73
2020/12/16 07:24:49;;;;;;;40.55;25.63;;;;;;;;;;5095100;28;20228;-73
2020/12/16 07:27:22;;;;;;;39.10;24.00;;;;;;;;;;5095431;28;20566;-72
2020/12/16 07:29:58;;;;;;;38.85;25.38;;;;;;;;;;5095349;28;20187;-74
2020/12/16 07:32:24;;;;;;;36.03;23.30;;;;;;;;;;5095541;28;20600;-74
2020/12/16 07:34:58;;;;;;;38.42;23.70;;;;;;;;;;5090927;28;20176;-74
2020/12/16 07:37:26;;;;;;;42.25;24.90;;;;;;;;;;5074936;28;20226;-73
2020/12/16 07:39:54;;;;;;;40.05;25.00;;;;;;;;;;5081663;28;20745;-73
2020/12/16 07:42:27;;;;;;;36.90;23.95;;;;;;;;;;5095410;28;20179;-72
2020/12/16 07:44:54;;;;;;;40.10;25.30;;;;;;;;;;5094593;28;20176;-74
2020/12/16 07:47:20;;;;;;;36.47;23.60;;;;;;;;;;5079158;28;20569;-74
2020/12/16 07:49:46;;;;;;;37.30;23.30;;;;;;;;;;5082650;28;20195;-73
2020/12/16 07:52:12;;;;;;;39.10;23.52;;;;;;;;;;5080487;28;20187;-73
2020/12/16 07:54:38;;;;;;;36.83;23.38;;;;;;;;;;5080000;28;20230;-72
2020/12/16 07:57:05;;;;;;;33.78;22.27;;;;;;;;;;5075003;28;20521;-73
2020/12/16 07:59:32;;;;;;;37.10;22.20;;;;;;;;;;5087925;28;20545;-74
2020/12/16 08:02:11;;;;;;;31.85;22.65;;;;;;;;;;5091140;28;20672;-75
2020/12/16 08:04:38;;;;;;;37.13;21.20;;;;;;;;;;5088473;28;20183;-73
2020/12/16 08:07:30;;;;;;;33.83;20.63;;;;;;;;;;5080572;28;20207;-74
2020/12/16 08:10:00;;;;;;;36.78;22.42;;;;;;;;;;5081284;28;20211;-72
2020/12/16 08:12:28;;;;;;;35.92;22.73;;;;;;;;;;5089011;28;20917;-73
2020/12/16 08:15:08;;;;;;;40.80;23.27;;;;;;;;;;5086615;28;20182;-75
2020/12/16 08:17:38;;;;;;;40.90;23.98;;;;;;;;;;5077570;28;20168;-75
2020/12/16 08:20:14;;;;;;;40.45;23.95;;;;;;;;;;5076853;28;20204;-72
2020/12/16 08:22:41;;;;;;;42.55;23.67;;;;;;;;;;5087799;28;20533;-74
2020/12/16 08:25:14;;;;;;;39.85;23.80;;;;;;;;;;5089733;28;20297;-74
2020/12/16 08:27:44;;;;;;;41.88;24.50;;;;;;;;;;5090363;28;20179;-72
2020/12/16 08:30:12;;;;;;;48.22;25.80;;;;;;;;;;5090180;28;20699;-77
2020/12/16 08:32:43;;;;;;;42.65;24.23;;;;;;;;;;5090686;28;20177;-75
2020/12/16 08:35:15;;;;;;;43.10;24.70;;;;;;;;;;5085844;28;20188;-73
2020/12/16 08:37:41;;;;;;;47.97;25.48;;;;;;;;;;5060871;28;21056;-74
2020/12/16 08:40:08;;;;;;;43.75;24.17;;;;;;;;;;5088254;28;20564;-74
2020/12/16 08:42:34;;;;;;;53.67;27.30;;;;;;;;;;5088320;28;20186;-75
2020/12/16 08:45:08;;;;;;;45.50;25.00;;;;;;;;;;5087850;28;20183;-74
2020/12/16 08:47:36;;;;;;;57.33;32.97;;;;;;;;;;5087274;28;20186;-73
2020/12/16 08:50:03;;;;;;;60.10;26.67;;;;;;;;;;5079584;28;20208;-73
2020/12/16 08:52:38;;;;;;;59.55;30.35;;;;;;;;;;5083275;28;20171;-75
2020/12/16 08:55:11;;;;;;;55.03;27.60;;;;;;;;;;5069247;28;20187;-72
2020/12/16 08:57:37;;;;;;;48.63;24.08;;;;;;;;;;5076772;28;20186;-75
2020/12/16 09:00:10;;;;;;;54.03;26.25;;;;;;;;;;5085246;28;20203;-75
2020/12/16 09:02:36;;;;;;;50.80;25.17;;;;;;;;;;5085918;28;20203;-74
2020/12/16 09:05:02;;;;;;;45.72;25.45;;;;;;;;;;5069245;28;20261;-75
2020/12/16 09:07:29;;;;;;;47.78;24.15;;;;;;;;;;5072669;28;20675;-74
2020/12/16 09:09:57;;;;;;;53.97;26.02;;;;;;;;;;5085430;28;20202;-73
2020/12/16 09:12:24;;;;;;;54.10;25.80;;;;;;;;;;5076528;28;20180;-72
2020/12/16 09:14:53;;;;;;;51.67;25.20;;;;;;;;;;5089173;28;20184;-71
2020/12/16 09:17:19;;;;;;;53.15;29.35;;;;;;;;;;5071182;28;20661;-74
2020/12/16 09:19:45;;;;;;;47.53;26.42;;;;;;;;;;5069199;28;20207;-73
2020/12/16 09:22:11;;;;;;;51.08;24.83;;;;;;;;;;5083105;28;20187;-74
2020/12/16 09:24:37;;;;;;;44.53;24.20;;;;;;;;;;5068930;28;20269;-73
2020/12/16 09:27:07;;;;;;;51.03;25.05;;;;;;;;;;5086033;28;20691;-75
2020/12/16 09:29:34;;;;;;;44.42;24.38;;;;;;;;;;5089090;28;20195;-73
2020/12/16 09:32:07;;;;;;;45.08;24.65;;;;;;;;;;5083676;28;20203;-74
2020/12/16 09:34:41;;;;;;;46.03;26.08;;;;;;;;;;5068193;28;20200;-75
2020/12/16 09:37:14;;;;;;;48.05;25.50;;;;;;;;;;5077116;28;20179;-75
2020/12/16 09:39:41;;;;;;;48.63;25.92;;;;;;;;;;5088971;28;20197;-73
2020/12/16 09:42:13;;;;;;;44.22;24.70;;;;;;;;;;5083652;28;20178;-74
2020/12/16 09:44:40;;;;;;;44.13;23.83;;;;;;;;;;5087803;28;20210;-75
2020/12/16 09:47:24;;;;;;;48.63;27.60;;;;;;;;;;5081880;28;20208;-73
2020/12/16 09:50:00;;;;;;;52.55;26.60;;;;;;;;;;5081148;28;20187;-75
2020/12/16 09:52:27;;;;;;;49.13;26.42;;;;;;;;;;5075835;28;20781;-73
2020/12/16 09:54:53;;;;;;;47.60;24.83;;;;;;;;;;5079288;28;20228;-73
2020/12/16 09:57:20;;;;;;;50.70;26.90;;;;;;;;;;5090066;28;20283;-74
2020/12/16 09:59:46;;;;;;;49.67;26.33;;;;;;;;;;5079457;28;20192;-72
2020/12/16 10:02:13;;;;;;;48.65;23.83;;;;;;;;;;5080188;28;20183;-73
2020/12/16 10:04:39;;;;;;;47.40;26.08;;;;;;;;;;5076102;28;20171;-73
2020/12/16 10:07:05;;;;;;;43.38;23.45;;;;;;;;;;5079486;28;20207;-72
2020/12/16 10:09:35;;;;;;;43.33;22.15;;;;;;;;;;5078711;28;20199;-73
2020/12/16 10:12:01;;;;;;;38.70;22.27;;;;;;;;;;5093278;28;20190;-74
2020/12/16 10:14:27;;;;;;;37.92;21.23;;;;;;;;;;5088649;28;20185;-73
2020/12/16 10:16:53;;;;;;;42.20;19.50;;;;;;;;;;5091584;28;20218;-73
2020/12/16 10:19:20;;;;;;;32.40;18.70;;;;;;;;;;5082651;28;20195;-74
2020/12/16 10:21:47;;;;;;;34.13;19.08;;;;;;;;;;5092733;28;20210;-75
2020/12/16 10:24:14;;;;;;;35.08;18.83;;;;;;;;;;5092311;28;20183;-72
2020/12/16 10:26:40;;;;;;;33.30;19.23;;;;;;;;;;5092517;28;20230;-74
2020/12/16 10:29:06;;;;;;;33.08;18.65;;;;;;;;;;5088840;28;20237;-74
2020/12/16 10:31:32;;;;;;;42.70;21.92;;;;;;;;;;5085250;28;20175;-74
2020/12/16 10:33:58;;;;;;;38.10;21.33;;;;;;;;;;5086797;28;20272;-75
2020/12/16 10:36:24;;;;;;;34.90;18.88;;;;;;;;;;5072384;28;20183;-73
2020/12/16 10:38:50;;;;;;;38.03;19.77;;;;;;;;;;5091669;28;20207;-74
2020/12/16 10:41:16;;;;;;;39.67;21.05;;;;;;;;;;5092622;28;20749;-75
2020/12/16 10:43:42;;;;;;;43.83;21.88;;;;;;;;;;5084009;28;20179;-75
2020/12/16 10:46:09;;;;;;;46.90;21.80;;;;;;;;;;5092709;28;20195;-73
2020/12/16 10:48:35;;;;;;;55.10;21.25;;;;;;;;;;5083174;28;20246;-73
2020/12/16 10:51:02;;;;;;;58.40;23.98;;;;;;;;;;5079117;28;20187;-74
2020/12/16 10:53:28;;;;;;;46.05;21.75;;;;;;;;;;5071962;28;20590;-75
2020/12/16 10:55:56;;;;;;;50.88;22.98;;;;;;;;;;5072014;28;20184;-76
2020/12/16 10:58:22;;;;;;;50.10;23.90;;;;;;;;;;5072859;28;20241;-73
2020/12/16 11:00:48;;;;;;;60.33;22.02;;;;;;;;;;5079938;28;20207;-75
2020/12/16 11:03:14;;;;;;;47.42;25.58;;;;;;;;;;5072779;28;20204;-72
2020/12/16 11:05:40;;;;;;;48.50;22.67;;;;;;;;;;5071335;28;20192;-75
2020/12/16 11:08:06;;;;;;;43.15;21.27;;;;;;;;;;5071968;28;20608;-75
2020/12/16 11:10:32;;;;;;;51.60;24.73;;;;;;;;;;5072794;28;20204;-75
2020/12/16 11:12:58;;;;;;;46.88;21.25;;;;;;;;;;5077045;28;20187;-73
2020/12/16 11:15:24;;;;;;;41.28;21.38;;;;;;;;;;5091456;28;20639;-73
2020/12/16 11:17:50;;;;;;;45.83;21.63;;;;;;;;;;5080256;28;20992;-74
2020/12/16 11:20:16;;;;;;;47.25;21.70;;;;;;;;;;5090109;28;20199;-75
2020/12/16 11:22:43;;;;;;;46.08;22.65;;;;;;;;;;5091840;28;20179;-73
2020/12/16 11:25:09;;;;;;;40.10;22.13;;;;;;;;;;5086767;28;20191;-75
2020/12/16 11:27:35;;;;;;;48.50;20.98;;;;;;;;;;5071400;28;20238;-75
2020/12/16 11:30:01;;;;;;;51.33;22.40;;;;;;;;;;5090534;28;20274;-75
2020/12/16 11:32:27;;;;;;;45.05;21.23;;;;;;;;;;5091378;28;20176;-73
2020/12/16 11:34:53;;;;;;;45.55;21.58;;;;;;;;;;5090779;28;20171;-75
2020/12/16 11:37:19;;;;;;;46.70;20.92;;;;;;;;;;5085705;28;20581;-75
2020/12/16 11:39:45;;;;;;;50.42;21.35;;;;;;;;;;5089583;28;20256;-74
2020/12/16 11:42:11;;;;;;;50.97;23.10;;;;;;;;;;5085482;28;20186;-75
2020/12/16 11:44:37;;;;;;;45.53;20.60;;;;;;;;;;5090596;28;20587;-73
2020/12/16 11:47:04;;;;;;;59.42;21.80;;;;;;;;;;5085524;28;20353;-73
2020/12/16 11:49:30;;;;;;;54.00;23.00;;;;;;;;;;5077901;28;20241;-74
2020/12/16 11:51:56;;;;;;;49.47;22.90;;;;;;;;;;5091327;28;20258;-73
2020/12/16 11:54:23;;;;;;;50.13;22.50;;;;;;;;;;5091044;28;20305;-75
2020/12/16 11:56:49;;;;;;;54.78;23.13;;;;;;;;;;5072629;28;20187;-76
2020/12/16 11:59:15;;;;;;;48.88;22.80;;;;;;;;;;5069063;28;20204;-75
2020/12/16 12:01:42;;;;;;;49.42;22.23;;;;;;;;;;5070817;28;20222;-76
2020/12/16 12:04:09;;;;;;;56.30;27.17;;;;;;;;;;5079037;28;20248;-75
2020/12/16 12:06:35;;;;;;;59.20;24.38;;;;;;;;;;5073934;28;20196;-73
2020/12/16 12:09:01;;;;;;;51.67;23.40;;;;;;;;;;5071819;28;20216;-75
2020/12/16 12:11:28;;;;;;;51.72;23.30;;;;;;;;;;5073176;28;20173;-75
2020/12/16 12:13:54;;;;;;;51.03;25.00;;;;;;;;;;5083736;28;20174;-73
2020/12/16 12:16:20;;;;;;;53.20;23.98;;;;;;;;;;5088587;28;20184;-74
2020/12/16 12:18:46;;;;;;;53.03;24.40;;;;;;;;;;5070537;28;20562;-75
2020/12/16 12:21:16;;;;;;;55.13;25.52;;;;;;;;;;5087549;28;20667;-75
2020/12/16 12:23:42;;;;;;;49.22;24.35;;;;;;;;;;5083514;28;20181;-74
2020/12/16 12:26:08;;;;;;;48.50;22.60;;;;;;;;;;5070383;28;20200;-75
2020/12/16 12:28:34;;;;;;;55.00;23.63;;;;;;;;;;5074281;28;20204;-73
2020/12/16 12:31:00;;;;;;;38.72;21.58;;;;;;;;;;5070372;28;20203;-73
2020/12/16 12:33:27;;;;;;;56.85;28.42;;;;;;;;;;5073639;28;20540;-74
2020/12/16 12:35:53;;;;;;;51.85;30.48;;;;;;;;;;5070032;28;20176;-74
2020/12/16 12:38:19;;;;;;;46.70;23.08;;;;;;;;;;5071335;28;20263;-74
2020/12/16 12:40:45;;;;;;;56.15;28.65;;;;;;;;;;5076628;28;20591;-75
2020/12/16 12:43:11;;;;;;;48.75;24.15;;;;;;;;;;5071498;28;20191;-73
2020/12/16 12:45:37;;;;;;;45.70;22.80;;;;;;;;;;5070460;28;20261;-73
2020/12/16 12:48:03;;;;;;;45.17;23.42;;;;;;;;;;5081078;28;20176;-74
2020/12/16 12:50:29;;;;;;;52.78;22.60;;;;;;;;;;5070785;28;20231;-73
2020/12/16 12:52:55;;;;;;;49.60;23.02;;;;;;;;;;5069556;28;20569;-74
2020/12/16 12:55:21;;;;;;;48.05;22.95;;;;;;;;;;5080585;28;20191;-73
2020/12/16 12:57:47;;;;;;;50.70;24.45;;;;;;;;;;5070930;28;20541;-75
2020/12/16 13:00:14;;;;;;;44.97;25.00;;;;;;;;;;5081409;28;20634;-74
2020/12/16 13:02:40;;;;;;;50.33;25.75;;;;;;;;;;5088634;28;20958;-75
2020/12/16 13:05:08;;;;;;;46.40;23.05;;;;;;;;;;5088149;28;20264;-74
2020/12/16 13:07:35;;;;;;;43.60;23.05;;;;;;;;;;5089404;28;20187;-76
2020/12/16 13:10:01;;;;;;;43.25;23.33;;;;;;;;;;5094924;28;20198;-73
2020/12/16 13:12:27;;;;;;;43.53;25.48;;;;;;;;;;5087201;28;20193;-75
2020/12/16 13:14:53;;;;;;;42.75;23.67;;;;;;;;;;5076535;28;20195;-75
2020/12/16 13:17:20;;;;;;;44.08;24.42;;;;;;;;;;5077633;28;20179;-74
2020/12/16 13:19:46;;;;;;;38.50;23.80;;;;;;;;;;5088312;28;20206;-73
2020/12/16 13:22:12;;;;;;;41.72;24.20;;;;;;;;;;5081987;28;20191;-74
2020/12/16 13:24:38;;;;;;;39.85;23.02;;;;;;;;;;5089097;28;20645;-74
2020/12/16 13:27:05;;;;;;;39.42;23.20;;;;;;;;;;5085246;28;20609;-74
2020/12/16 13:29:31;;;;;;;35.47;22.55;;;;;;;;;;5089031;28;20211;-75
2020/12/16 13:31:57;;;;;;;38.38;22.50;;;;;;;;;;5087716;28;20186;-74
2020/12/16 13:34:23;;;;;;;41.65;28.58;;;;;;;;;;5086518;28;20942;-75
2020/12/16 13:36:50;;;;;;;54.83;32.33;;;;;;;;;;5086070;28;20180;-74
2020/12/16 13:39:16;;;;;;;37.72;23.48;;;;;;;;;;5088413;28;20203;-74
2020/12/16 13:41:44;;;;;;;41.03;23.02;;;;;;;;;;5086191;28;20183;-74
2020/12/16 13:44:11;;;;;;;41.08;22.65;;;;;;;;;;5088507;28;20179;-74
2020/12/16 13:46:37;;;;;;;46.83;23.77;;;;;;;;;;5084435;28;20207;-72
2020/12/16 13:49:04;;;;;;;45.20;23.10;;;;;;;;;;5082889;28;20299;-74
2020/12/16 13:51:30;;;;;;;38.90;21.20;;;;;;;;;;5087003;28;20178;-74
2020/12/16 13:53:56;;;;;;;102.40;56.95;;;;;;;;;;5083721;28;20184;-72
2020/12/16 13:56:27;;;;;;;40.65;23.00;;;;;;;;;;5077047;28;20214;-73
2020/12/16 13:58:53;;;;;;;38.33;22.17;;;;;;;;;;5084012;28;20699;-73
2020/12/16 14:01:19;;;;;;;41.33;22.35;;;;;;;;;;5077486;28;20199;-72
2020/12/16 14:03:45;;;;;;;38.63;19.48;;;;;;;;;;5081778;28;20182;-74
2020/12/16 14:06:11;;;;;;;32.30;19.83;;;;;;;;;;5086815;28;20207;-72
2020/12/16 14:08:38;;;;;;;29.20;17.58;;;;;;;;;;5090067;28;20305;-73
2020/12/16 14:11:04;;;;;;;32.45;20.20;;;;;;;;;;5092734;28;20180;-73
2020/12/16 14:13:30;;;;;;;36.58;20.50;;;;;;;;;;5081684;28;20206;-73
2020/12/16 14:15:56;;;;;;;39.85;22.90;;;;;;;;;;5069655;28;20611;-74